Terminal Aerodrome Forecast
Issued by NWS Sterling, VA

Home | Current Version | Previous Version | Text Only | Print | Product List | Glossary On
Versions: 1 2 3 4 5 6 7 8 9 10 11 12 13 14 15 16 17 18
000
FTUS41 KLWX 041142
TAFMRB
TAF
KMRB 041142Z 0412/0512 23005KT 3SM -SHRA BR OVC050
     FM041400 VRB04KT 3SM -RA BR OVC015
     FM042100 34004KT 2SM -RA BR OVC008
     FM050300 32006KT 1SM -RAPL BR OVC008
     FM050600 34008KT 3/4SM -SN OVC008=

USA.gov is the U.S. government's official web portal to all federal, state and local government web resources and services.